createdAt,value
2018-05-01T00:00:17.025Z,6.84
2018-05-01T00:02:45.189Z,7.14
2018-05-01T00:05:13.370Z,7.12
2018-05-01T00:07:41.535Z,7.12
2018-05-01T00:10:09.712Z,7.20
2018-05-01T00:12:37.860Z,7.33
2018-05-01T00:15:06.044Z,7.27
2018-05-01T00:17:34.225Z,7.24
2018-05-01T00:20:02.393Z,6.98
2018-05-01T00:22:30.568Z,6.97
2018-05-01T00:24:58.741Z,7.01
2018-05-01T00:27:26.931Z,7.05
2018-05-01T00:29:55.084Z,7.17
2018-05-01T00:32:23.273Z,6.91
2018-05-01T00:34:51.393Z,7.05
2018-05-01T00:37:19.565Z,7.04
2018-05-01T00:39:47.738Z,7.23
2018-05-01T00:42:15.894Z,6.84
2018-05-01T00:44:44.032Z,7.21
2018-05-01T00:47:12.199Z,7.00
2018-05-01T00:49:40.475Z,6.94
2018-05-01T00:52:09.538Z,6.81
2018-05-01T00:54:37.761Z,6.93
2018-05-01T00:57:05.874Z,7.07
2018-05-01T00:59:34.038Z,6.83
2018-05-01T01:02:02.174Z,7.25
2018-05-01T01:04:30.373Z,7.22
2018-05-01T01:06:58.510Z,6.88
2018-05-01T01:09:26.678Z,7.01
2018-05-01T01:11:54.845Z,7.14
2018-05-01T01:14:23.033Z,7.22
2018-05-01T01:16:51.185Z,7.38
2018-05-01T01:19:19.338Z,7.18
2018-05-01T01:21:47.508Z,7.20
2018-05-01T01:24:15.784Z,6.80
2018-05-01T01:26:43.886Z,7.24
2018-05-01T01:29:12.058Z,6.68
2018-05-01T01:31:40.227Z,7.11
2018-05-01T01:34:08.374Z,6.70
2018-05-01T01:36:35.526Z,6.70
2018-05-01T01:39:02.644Z,6.88
2018-05-01T01:41:29.776Z,6.94
2018-05-01T01:43:57.030Z,7.00
2018-05-01T01:46:24.175Z,7.11
2018-05-01T01:48:51.295Z,7.08
2018-05-01T01:51:18.431Z,7.06
2018-05-01T01:53:45.575Z,6.84
2018-05-01T01:56:12.697Z,7.02
2018-05-01T01:58:39.852Z,6.87
2018-05-01T02:01:06.999Z,6.96
2018-05-01T02:03:34.130Z,7.07
2018-05-01T02:06:01.256Z,7.14
2018-05-01T02:08:28.399Z,6.89
2018-05-01T02:10:55.561Z,6.69
2018-05-01T02:13:22.675Z,6.76
2018-05-01T02:15:49.813Z,6.95
2018-05-01T02:18:16.949Z,7.01
2018-05-01T02:20:44.073Z,6.88
2018-05-01T02:23:11.201Z,7.04
2018-05-01T02:25:38.332Z,7.01
2018-05-01T02:28:05.483Z,6.91
2018-05-01T02:30:32.687Z,7.02
2018-05-01T02:32:59.756Z,6.75
2018-05-01T02:35:26.919Z,6.99
2018-05-01T02:37:54.036Z,6.93
2018-05-01T02:40:21.147Z,7.15
2018-05-01T02:42:48.282Z,7.03
2018-05-01T02:45:15.428Z,6.99
2018-05-01T02:47:42.561Z,6.69
2018-05-01T02:50:09.687Z,6.78
2018-05-01T02:52:36.853Z,6.96
2018-05-01T02:55:03.990Z,7.06
2018-05-01T02:57:31.097Z,7.14
2018-05-01T02:59:58.226Z,7.22
2018-05-01T03:02:25.389Z,7.11
2018-05-01T03:04:52.539Z,7.17
2018-05-01T03:07:19.670Z,6.84
2018-05-01T03:09:46.901Z,7.13
2018-05-01T03:12:13.958Z,7.10
2018-05-01T03:14:41.098Z,6.96
2018-05-01T03:17:08.256Z,7.26
2018-05-01T03:19:35.380Z,7.25
2018-05-01T03:22:02.490Z,7.21
2018-05-01T03:24:29.633Z,7.26
2018-05-01T03:26:56.782Z,7.06
2018-05-01T03:29:26.614Z,7.17
2018-05-01T03:31:53.734Z,7.17
2018-05-01T03:34:20.893Z,7.18
2018-05-01T03:36:48.033Z,6.90
2018-05-01T03:39:15.229Z,7.24
2018-05-01T03:41:42.329Z,7.14
2018-05-01T03:44:09.460Z,7.26
2018-05-01T03:46:36.613Z,7.08
2018-05-01T03:49:03.834Z,7.08
2018-05-01T03:51:30.975Z,7.05
2018-05-01T03:53:58.121Z,7.15
2018-05-01T03:56:25.241Z,7.01
2018-05-01T03:58:52.378Z,7.11
2018-05-01T04:01:19.524Z,7.29
2018-05-01T04:03:46.678Z,7.20
2018-05-01T04:06:13.816Z,7.10
2018-05-01T04:08:40.969Z,7.05
2018-05-01T04:11:08.177Z,7.13
2018-05-01T04:13:35.314Z,6.98
2018-05-01T04:16:02.453Z,7.38
2018-05-01T04:18:29.590Z,7.33
2018-05-01T04:20:56.741Z,7.28
2018-05-01T04:23:23.869Z,7.40
2018-05-01T04:25:51.030Z,7.11
2018-05-01T04:28:18.148Z,7.31
2018-05-01T04:30:45.290Z,7.24
2018-05-01T04:33:12.421Z,7.25
2018-05-01T04:35:39.559Z,7.43
2018-05-01T04:38:06.686Z,7.31
2018-05-01T04:40:33.837Z,7.29
2018-05-01T04:43:00.987Z,7.36
2018-05-01T04:45:28.099Z,7.20
2018-05-01T04:47:55.261Z,7.24
2018-05-01T04:50:22.406Z,7.16
2018-05-01T04:52:49.580Z,7.34
2018-05-01T04:55:16.696Z,7.27
2018-05-01T04:57:43.892Z,7.26
2018-05-01T05:00:10.982Z,7.47
2018-05-01T05:02:38.093Z,7.50
2018-05-01T05:05:05.223Z,7.25
2018-05-01T05:07:32.356Z,7.27
2018-05-01T05:09:59.489Z,7.16
2018-05-01T05:12:26.634Z,7.42
2018-05-01T05:14:53.779Z,7.45
2018-05-01T05:17:20.882Z,7.28
2018-05-01T05:19:48.013Z,7.26
2018-05-01T05:22:15.178Z,6.99
2018-05-01T05:24:42.333Z,7.23
2018-05-01T05:27:09.499Z,7.46
2018-05-01T05:29:36.646Z,7.37
2018-05-01T05:32:03.789Z,7.36
2018-05-01T05:34:30.922Z,7.34
2018-05-01T05:36:58.055Z,7.57
2018-05-01T05:39:25.264Z,7.33
2018-05-01T05:41:52.380Z,7.62
2018-05-01T05:44:19.494Z,7.68
2018-05-01T05:46:46.628Z,7.65
2018-05-01T05:49:13.799Z,7.48
2018-05-01T05:51:40.929Z,7.46
2018-05-01T05:54:08.097Z,7.37
2018-05-01T05:56:35.247Z,7.49
2018-05-01T05:59:02.393Z,7.55
2018-05-01T06:01:29.544Z,7.51
2018-05-01T06:03:56.717Z,7.54
2018-05-01T06:06:23.866Z,7.31
2018-05-01T06:08:51.069Z,7.46
2018-05-01T06:11:18.276Z,7.66
2018-05-01T06:13:45.514Z,7.67
2018-05-01T06:16:12.550Z,7.58
2018-05-01T06:18:39.700Z,7.80
2018-05-01T06:21:06.853Z,7.82
2018-05-01T06:23:33.996Z,7.75
2018-05-01T06:26:01.123Z,7.74
2018-05-01T06:28:28.280Z,7.79
2018-05-01T06:30:55.424Z,7.79
2018-05-01T06:33:22.621Z,7.62
2018-05-01T06:35:49.674Z,7.87
2018-05-01T06:38:16.833Z,8.02
2018-05-01T06:40:43.973Z,8.01
2018-05-01T06:43:11.107Z,8.01
2018-05-01T06:45:38.380Z,8.08
2018-05-01T06:48:05.529Z,8.20
2018-05-01T06:50:32.636Z,8.17
2018-05-01T06:52:59.767Z,8.10
2018-05-01T06:55:26.930Z,8.24
2018-05-01T06:57:54.081Z,8.33
2018-05-01T07:00:21.263Z,8.13
2018-05-01T07:02:48.414Z,8.20
2018-05-01T07:05:15.576Z,8.19
2018-05-01T07:07:42.706Z,8.20
2018-05-01T07:10:09.907Z,7.90
2018-05-01T07:12:37.013Z,7.99
2018-05-01T07:15:04.129Z,8.09
2018-05-01T07:17:31.301Z,8.07
2018-05-01T07:19:58.450Z,7.98
2018-05-01T07:22:25.595Z,8.13
2018-05-01T07:24:52.741Z,8.09
2018-05-01T07:27:19.868Z,8.22
2018-05-01T07:29:47.008Z,8.03
2018-05-01T07:32:14.147Z,8.20
2018-05-01T07:34:41.297Z,8.04
2018-05-01T07:37:08.449Z,8.17
2018-05-01T07:39:35.702Z,8.00
2018-05-01T07:42:02.847Z,8.31
2018-05-01T07:44:29.967Z,8.37
2018-05-01T07:46:57.154Z,8.19
2018-05-01T07:49:24.298Z,8.35
2018-05-01T07:51:51.444Z,8.28
2018-05-01T07:54:18.598Z,8.35
2018-05-01T07:56:45.761Z,8.25
2018-05-01T07:59:12.920Z,8.11
2018-05-01T08:01:40.074Z,8.32
2018-05-01T08:04:07.220Z,8.10
2018-05-01T08:06:34.395Z,8.14
2018-05-01T08:09:01.697Z,8.31
2018-05-01T08:11:28.863Z,8.52
2018-05-01T08:13:55.980Z,8.45
2018-05-01T08:16:23.100Z,8.41
2018-05-01T08:18:50.262Z,8.58
2018-05-01T08:21:17.402Z,8.51
2018-05-01T08:23:44.544Z,8.45
2018-05-01T08:26:11.723Z,8.60
2018-05-01T08:28:38.848Z,8.50
2018-05-01T08:31:05.971Z,8.51
2018-05-01T08:33:33.137Z,8.40
2018-05-01T08:36:00.282Z,8.36
2018-05-01T08:38:27.435Z,8.50
2018-05-01T08:40:54.627Z,8.53
2018-05-01T08:43:21.833Z,8.49
2018-05-01T08:45:48.956Z,8.46
2018-05-01T08:48:16.089Z,8.72
2018-05-01T08:50:43.241Z,8.65
2018-05-01T08:53:11.341Z,8.65
2018-05-01T08:55:38.490Z,8.49
2018-05-01T08:58:05.851Z,8.66
2018-05-01T09:00:33.015Z,8.61
2018-05-01T09:03:00.175Z,8.66
2018-05-01T09:05:27.292Z,8.58
2018-05-01T09:07:54.462Z,8.76
2018-05-01T09:10:21.614Z,8.80
2018-05-01T09:12:48.751Z,8.91
2018-05-01T09:15:15.894Z,9.04
2018-05-01T09:17:43.032Z,9.49
2018-05-01T09:20:10.172Z,9.92
2018-05-01T09:22:37.315Z,10.34
2018-05-01T09:25:04.459Z,10.63
2018-05-01T09:27:31.634Z,11.23
2018-05-01T09:29:58.863Z,11.43
2018-05-01T09:32:26.009Z,11.61
2018-05-01T09:34:53.142Z,12.16
2018-05-01T09:37:20.308Z,12.97
2018-05-01T09:39:47.434Z,13.03
2018-05-01T09:42:14.610Z,13.50
2018-05-01T09:44:41.757Z,13.76
2018-05-01T09:47:08.916Z,13.81
2018-05-01T09:49:36.117Z,15.15
2018-05-01T09:52:03.170Z,16.25
2018-05-01T09:54:31.324Z,16.37
2018-05-01T09:56:59.517Z,15.69
2018-05-01T09:59:27.715Z,15.22
2018-05-01T10:01:56.035Z,15.27
2018-05-01T10:04:24.255Z,14.01
2018-05-01T10:06:52.424Z,14.98
2018-05-01T10:09:20.630Z,14.96
2018-05-01T10:11:48.812Z,15.00
2018-05-01T10:14:21.156Z,14.73
2018-05-01T10:16:49.326Z,14.18
2018-05-01T10:19:17.463Z,14.21
2018-05-01T10:21:45.653Z,14.43
2018-05-01T10:24:13.864Z,14.37
2018-05-01T10:26:42.050Z,14.09
2018-05-01T10:29:10.230Z,14.38
2018-05-01T10:31:38.398Z,14.40
2018-05-01T10:34:06.678Z,13.93
2018-05-01T10:36:34.859Z,14.16
2018-05-01T10:39:03.290Z,14.22
2018-05-01T10:41:31.403Z,13.72
2018-05-01T10:43:59.615Z,13.82
2018-05-01T10:46:28.095Z,13.93
2018-05-01T10:48:56.726Z,13.70
2018-05-01T10:51:24.886Z,13.57
2018-05-01T10:53:53.022Z,13.38
2018-05-01T10:56:21.211Z,13.64
2018-05-01T10:58:49.395Z,13.25
2018-05-01T11:01:17.577Z,13.30
2018-05-01T11:03:45.798Z,13.43
2018-05-01T11:06:13.977Z,13.92
2018-05-01T11:08:42.287Z,14.09
2018-05-01T11:11:10.492Z,14.37
2018-05-01T11:13:38.657Z,14.17
2018-05-01T11:16:06.877Z,14.32
2018-05-01T11:18:35.055Z,14.66
2018-05-01T11:21:03.256Z,14.31
2018-05-01T11:23:31.390Z,14.54
2018-05-01T11:25:59.650Z,14.58
2018-05-01T11:28:27.828Z,14.65
2018-05-01T11:30:55.955Z,15.23
2018-05-01T11:33:24.109Z,15.60
2018-05-01T11:35:52.287Z,15.41
2018-05-01T11:38:20.613Z,15.61
2018-05-01T11:40:48.857Z,15.49
2018-05-01T11:43:17.003Z,15.03
2018-05-01T11:45:45.150Z,15.30
2018-05-01T11:48:13.331Z,15.47
2018-05-01T11:50:41.540Z,15.54
2018-05-01T11:53:09.734Z,15.33
2018-05-01T11:55:37.927Z,15.87
2018-05-01T11:58:06.096Z,15.77
2018-05-01T12:00:34.248Z,15.73
2018-05-01T12:03:02.425Z,15.70
2018-05-01T12:05:30.544Z,15.86
2018-05-01T12:07:58.763Z,15.81
2018-05-01T12:10:27.319Z,15.71
2018-05-01T12:12:55.511Z,15.60
2018-05-01T12:15:23.664Z,15.47
2018-05-01T12:17:51.850Z,15.37
2018-05-01T12:20:20.011Z,14.99
2018-05-01T12:22:48.190Z,15.25
2018-05-01T12:25:16.357Z,15.44
2018-05-01T12:27:44.537Z,15.38
2018-05-01T12:30:12.711Z,15.41
2018-05-01T12:32:40.879Z,15.37
2018-05-01T12:35:09.047Z,15.54
2018-05-01T12:37:37.228Z,15.65
2018-05-01T12:40:05.381Z,15.67
2018-05-01T12:42:33.978Z,15.61
2018-05-01T12:45:02.139Z,15.63
2018-05-01T12:47:30.307Z,15.55
2018-05-01T12:49:58.485Z,15.32
2018-05-01T12:52:26.640Z,15.36
2018-05-01T12:54:54.883Z,15.56
2018-05-01T12:57:23.060Z,15.54
2018-05-01T12:59:51.205Z,15.48
2018-05-01T13:02:19.369Z,15.61
2018-05-01T13:04:47.527Z,15.58
2018-05-01T13:07:15.677Z,15.54
2018-05-01T13:09:43.891Z,15.60
2018-05-01T13:12:12.072Z,15.57
2018-05-01T13:14:40.242Z,15.41
2018-05-01T13:17:08.886Z,15.67
2018-05-01T13:19:37.058Z,15.56
2018-05-01T13:22:05.229Z,15.82
2018-05-01T13:24:33.378Z,15.59
2018-05-01T13:27:01.574Z,15.51
2018-05-01T13:29:29.741Z,15.62
2018-05-01T13:31:57.945Z,15.56
2018-05-01T13:34:26.105Z,15.65
2018-05-01T13:36:54.263Z,15.54
2018-05-01T13:39:22.439Z,15.82
2018-05-01T13:41:50.637Z,15.98
2018-05-01T13:44:18.889Z,15.84
2018-05-01T13:46:47.091Z,15.89
2018-05-01T13:49:15.310Z,15.95
2018-05-01T13:51:43.521Z,15.94
2018-05-01T13:54:11.682Z,16.06
2018-05-01T13:56:39.829Z,16.03
2018-05-01T13:59:08.027Z,16.13
2018-05-01T14:01:38.772Z,16.11
2018-05-01T14:04:06.986Z,16.15
2018-05-01T14:06:35.171Z,16.16
2018-05-01T14:09:03.476Z,16.17
2018-05-01T14:11:31.677Z,16.21
2018-05-01T14:13:59.868Z,15.93
2018-05-01T14:16:28.077Z,16.20
2018-05-01T14:18:56.268Z,16.18
2018-05-01T14:21:24.506Z,15.89
2018-05-01T14:23:52.749Z,16.05
2018-05-01T14:26:20.967Z,15.93
2018-05-01T14:28:49.249Z,15.71
2018-05-01T14:31:17.764Z,15.84
2018-05-01T14:33:45.908Z,15.90
2018-05-01T14:36:14.214Z,15.97
2018-05-01T14:38:42.553Z,15.89
2018-05-01T14:41:10.714Z,15.74
2018-05-01T14:43:38.890Z,15.51
2018-05-01T14:46:07.960Z,15.58
2018-05-01T14:48:36.173Z,15.49
2018-05-01T14:51:04.349Z,15.19
2018-05-01T14:53:33.411Z,15.35
2018-05-01T14:56:04.977Z,15.17
2018-05-01T14:58:35.103Z,15.29
2018-05-01T15:01:04.170Z,15.20
2018-05-01T15:03:32.578Z,15.10
2018-05-01T15:06:02.590Z,15.18
2018-05-01T15:08:39.580Z,15.17
2018-05-01T15:11:10.903Z,15.24
2018-05-01T15:13:42.158Z,15.19
2018-05-01T15:16:13.698Z,15.24
2018-05-01T15:18:45.602Z,14.86
2018-05-01T15:21:14.440Z,15.01
2018-05-01T15:23:44.011Z,15.19
2018-05-01T15:26:12.156Z,15.07
2018-05-01T15:28:40.330Z,14.99
2018-05-01T15:31:08.492Z,14.71
2018-05-01T15:33:36.652Z,15.06
2018-05-01T15:36:04.915Z,15.17
2018-05-01T15:38:33.089Z,15.03
2018-05-01T15:41:01.264Z,14.49
2018-05-01T15:43:29.423Z,14.99
2018-05-01T15:45:57.625Z,15.12
2018-05-01T15:48:25.811Z,14.90
2018-05-01T15:50:53.975Z,14.92
2018-05-01T15:53:22.137Z,14.97
2018-05-01T15:55:50.248Z,14.85
2018-05-01T15:58:18.435Z,14.74
2018-05-01T16:00:46.755Z,14.90
2018-05-01T16:03:14.823Z,14.89
2018-05-01T16:05:43.135Z,14.93
2018-05-01T16:08:11.295Z,14.91
2018-05-01T16:10:39.453Z,14.95
2018-05-01T16:13:07.620Z,14.95
2018-05-01T16:15:35.802Z,14.91
2018-05-01T16:18:03.986Z,14.75
2018-05-01T16:20:32.163Z,14.65
2018-05-01T16:23:00.350Z,14.21
2018-05-01T16:25:28.513Z,14.40
2018-05-01T16:27:56.664Z,14.48
2018-05-01T16:30:24.833Z,14.60
2018-05-01T16:32:53.005Z,14.56
2018-05-01T16:35:21.214Z,14.55
2018-05-01T16:37:49.408Z,14.63
2018-05-01T16:40:17.688Z,14.64
2018-05-01T16:42:45.735Z,14.57
2018-05-01T16:45:13.899Z,14.50
2018-05-01T16:47:42.124Z,14.50
2018-05-01T16:50:10.363Z,14.50
2018-05-01T16:52:38.476Z,14.54
2018-05-01T16:55:06.649Z,14.61
2018-05-01T16:57:35.580Z,14.56
2018-05-01T17:00:03.781Z,14.62
2018-05-01T17:02:31.944Z,14.41
2018-05-01T17:05:00.129Z,14.52
2018-05-01T17:07:28.340Z,14.51
2018-05-01T17:09:56.536Z,14.55
2018-05-01T17:12:24.693Z,14.56
2018-05-01T17:14:52.904Z,14.53
2018-05-01T17:17:21.074Z,14.52
2018-05-01T17:19:49.277Z,14.53
2018-05-01T17:22:17.478Z,14.54
2018-05-01T17:24:45.822Z,14.47
2018-05-01T17:27:13.997Z,14.48
2018-05-01T17:29:42.151Z,14.42
2018-05-01T17:32:10.651Z,14.44
2018-05-01T17:34:38.820Z,14.47
2018-05-01T17:37:06.970Z,14.42
2018-05-01T17:39:35.151Z,14.42
2018-05-01T17:42:03.359Z,14.43
2018-05-01T17:44:31.527Z,14.45
2018-05-01T17:46:59.720Z,14.45
2018-05-01T17:49:27.864Z,14.42
2018-05-01T17:51:56.011Z,14.40
2018-05-01T17:54:24.214Z,14.40
2018-05-01T17:56:52.386Z,14.22
2018-05-01T17:59:20.598Z,14.29
2018-05-01T18:01:48.770Z,14.27
2018-05-01T18:04:16.944Z,14.24
2018-05-01T18:06:45.262Z,14.18
2018-05-01T18:09:13.455Z,14.10
2018-05-01T18:11:41.625Z,14.05
2018-05-01T18:14:09.890Z,14.02
2018-05-01T18:16:38.077Z,14.01
2018-05-01T18:19:06.249Z,14.00
2018-05-01T18:21:34.487Z,14.02
2018-05-01T18:24:02.668Z,14.02
2018-05-01T18:26:30.865Z,14.01
2018-05-01T18:28:59.032Z,14.00
2018-05-01T18:31:27.182Z,13.96
2018-05-01T18:33:55.352Z,13.91
2018-05-01T18:36:23.601Z,13.85
2018-05-01T18:38:51.719Z,13.78
2018-05-01T18:41:20.059Z,13.67
2018-05-01T18:43:48.511Z,13.56
2018-05-01T18:46:16.753Z,13.46
2018-05-01T18:48:44.932Z,13.40
2018-05-01T18:51:13.238Z,13.28
2018-05-01T18:53:41.402Z,13.17
2018-05-01T18:56:09.572Z,13.06
2018-05-01T18:58:37.808Z,12.96
2018-05-01T19:01:05.959Z,12.86
2018-05-01T19:03:34.131Z,12.77
2018-05-01T19:06:02.340Z,12.70
2018-05-01T19:08:30.515Z,12.62
2018-05-01T19:10:58.702Z,12.49
2018-05-01T19:13:26.892Z,12.39
2018-05-01T19:15:55.061Z,12.29
2018-05-01T19:18:23.325Z,12.18
2018-05-01T19:20:51.506Z,12.11
2018-05-01T19:23:19.781Z,12.05
2018-05-01T19:25:47.940Z,11.97
2018-05-01T19:28:16.094Z,11.92
2018-05-01T19:30:44.271Z,11.86
2018-05-01T19:33:12.852Z,11.76
2018-05-01T19:35:41.026Z,11.63
2018-05-01T19:38:09.249Z,11.51
2018-05-01T19:40:37.423Z,11.42
2018-05-01T19:43:05.619Z,11.35
2018-05-01T19:45:33.900Z,11.24
2018-05-01T19:48:02.911Z,11.17
2018-05-01T19:50:31.070Z,11.12
2018-05-01T19:52:59.266Z,11.07
2018-05-01T19:55:27.417Z,11.03
2018-05-01T19:57:55.684Z,10.97
2018-05-01T20:00:23.905Z,10.91
2018-05-01T20:02:52.094Z,10.83
2018-05-01T20:05:20.281Z,10.78
2018-05-01T20:07:48.449Z,10.72
2018-05-01T20:10:16.644Z,10.67
2018-05-01T20:12:44.971Z,10.63
2018-05-01T20:15:13.160Z,10.54
2018-05-01T20:17:41.378Z,10.48
2018-05-01T20:20:09.592Z,10.41
2018-05-01T20:22:37.753Z,10.36
2018-05-01T20:25:05.977Z,10.32
2018-05-01T20:27:34.133Z,10.30
2018-05-01T20:30:02.362Z,10.29
2018-05-01T20:32:30.529Z,10.25
2018-05-01T20:34:58.694Z,10.21
2018-05-01T20:37:26.925Z,10.17
2018-05-01T20:39:55.022Z,10.12
2018-05-01T20:42:23.217Z,10.06
2018-05-01T20:44:51.418Z,10.04
2018-05-01T20:47:19.982Z,10.03
2018-05-01T20:49:48.169Z,9.99
2018-05-01T20:52:16.402Z,9.98
2018-05-01T20:54:44.482Z,9.99
2018-05-01T20:57:12.641Z,9.97
2018-05-01T20:59:40.822Z,9.90
2018-05-01T21:02:09.011Z,9.85
2018-05-01T21:04:37.155Z,9.92
2018-05-01T21:07:05.349Z,9.92
2018-05-01T21:09:33.513Z,9.90
2018-05-01T21:12:01.703Z,9.93
2018-05-01T21:14:29.840Z,9.99
2018-05-01T21:16:58.063Z,10.08
2018-05-01T21:19:26.175Z,10.15
2018-05-01T21:21:54.534Z,10.22
2018-05-01T21:24:22.727Z,10.27
2018-05-01T21:26:50.890Z,10.33
2018-05-01T21:29:19.066Z,10.42
2018-05-01T21:31:47.269Z,10.51
2018-05-01T21:34:15.428Z,10.56
2018-05-01T21:36:43.573Z,10.59
2018-05-01T21:39:11.721Z,10.64
2018-05-01T21:41:39.914Z,10.69
2018-05-01T21:44:08.068Z,10.74
2018-05-01T21:46:36.235Z,10.81
2018-05-01T21:49:04.415Z,10.91
2018-05-01T21:51:32.567Z,10.97
2018-05-01T21:54:00.735Z,11.03
2018-05-01T21:56:28.885Z,11.07
2018-05-01T21:58:57.051Z,11.08
2018-05-01T22:01:25.218Z,11.09
2018-05-01T22:03:53.418Z,11.10
2018-05-01T22:06:21.568Z,11.08
2018-05-01T22:08:49.762Z,11.06
2018-05-01T22:11:17.974Z,11.09
2018-05-01T22:13:46.463Z,11.11
2018-05-01T22:16:14.657Z,11.11
2018-05-01T22:18:42.832Z,11.11
2018-05-01T22:21:11.004Z,11.08
2018-05-01T22:23:39.162Z,11.05
2018-05-01T22:26:07.348Z,11.05
2018-05-01T22:28:35.518Z,11.02
2018-05-01T22:31:03.692Z,11.03
2018-05-01T22:33:31.852Z,10.99
2018-05-01T22:36:00.032Z,10.93
2018-05-01T22:38:28.196Z,10.87
2018-05-01T22:40:56.368Z,10.77
2018-05-01T22:43:24.565Z,10.71
2018-05-01T22:45:52.731Z,10.69
2018-05-01T22:48:20.913Z,10.64
2018-05-01T22:50:49.088Z,10.59
2018-05-01T22:53:17.255Z,10.55
2018-05-01T22:55:45.415Z,10.55
2018-05-01T22:58:13.579Z,10.54
2018-05-01T23:00:41.759Z,10.52
2018-05-01T23:03:10.069Z,10.52
2018-05-01T23:05:38.257Z,10.51
2018-05-01T23:08:06.397Z,10.47
2018-05-01T23:10:34.529Z,10.40
2018-05-01T23:13:02.722Z,10.30
2018-05-01T23:15:30.889Z,10.22
2018-05-01T23:17:59.079Z,10.07
2018-05-01T23:20:27.263Z,9.94
2018-05-01T23:22:55.442Z,9.84
2018-05-01T23:25:23.611Z,9.76
2018-05-01T23:27:51.767Z,9.67
2018-05-01T23:30:19.966Z,9.61
2018-05-01T23:32:48.114Z,9.52
2018-05-01T23:35:16.286Z,9.47
2018-05-01T23:37:44.435Z,9.42
2018-05-01T23:40:12.626Z,9.38
2018-05-01T23:42:40.759Z,9.29
2018-05-01T23:45:08.933Z,9.27
2018-05-01T23:47:37.097Z,9.26
2018-05-01T23:50:05.291Z,9.25
2018-05-01T23:52:33.442Z,9.22
2018-05-01T23:55:01.592Z,9.23
2018-05-01T23:57:29.788Z,9.22
2018-05-01T23:59:57.924Z,9.21
